sensor_id;sensor_type;location;lat;lon;timestamp;pressure;altitude;pressure_sealevel;temperature;humidity
40574;BME280;26283;49.020;8.644;2023-05-01T00:01:03;99226.53;;;16.54;55.06
40574;BME280;26283;49.020;8.644;2023-05-01T00:03:30;99219.47;;;16.53;55.20
40574;BME280;26283;49.020;8.644;2023-05-01T00:05:59;99217.81;;;16.52;55.26
40574;BME280;26283;49.020;8.644;2023-05-01T00:08:25;99212.88;;;16.49;55.32
40574;BME280;26283;49.020;8.644;2023-05-01T00:10:51;99211.81;;;16.50;55.25
40574;BME280;26283;49.020;8.644;2023-05-01T00:13:16;99208.28;;;16.49;55.33
40574;BME280;26283;49.020;8.644;2023-05-01T00:15:46;99206.63;;;16.48;55.53
40574;BME280;26283;49.020;8.644;2023-05-01T00:18:12;99204.97;;;16.47;55.57
40574;BME280;26283;49.020;8.644;2023-05-01T00:20:38;99196.28;;;16.45;55.56
40574;BME280;26283;49.020;8.644;2023-05-01T00:23:03;99197.09;;;16.45;55.64
40574;BME280;26283;49.020;8.644;2023-05-01T00:25:28;99194.66;;;16.44;55.68
40574;BME280;26283;49.020;8.644;2023-05-01T00:27:55;99195.47;;;16.44;55.66
40574;BME280;26283;49.020;8.644;2023-05-01T00:30:21;99199.53;;;16.42;55.78
40574;BME280;26283;49.020;8.644;2023-05-01T00:32:46;99198.69;;;16.41;55.82
40574;BME280;26283;49.020;8.644;2023-05-01T00:35:11;99189.72;;;16.41;55.88
40574;BME280;26283;49.020;8.644;2023-05-01T00:37:37;99188.91;;;16.40;55.98
40574;BME280;26283;49.020;8.644;2023-05-01T00:40:03;99182.62;;;16.40;55.99
40574;BME280;26283;49.020;8.644;2023-05-01T00:42:35;99180.19;;;16.38;56.04
40574;BME280;26283;49.020;8.644;2023-05-01T00:45:01;99183.16;;;16.37;56.15
40574;BME280;26283;49.020;8.644;2023-05-01T00:47:27;99183.16;;;16.37;56.04
40574;BME280;26283;49.020;8.644;2023-05-01T00:49:53;99176.06;;;16.36;56.07
40574;BME280;26283;49.020;8.644;2023-05-01T00:52:19;99177.16;;;16.35;56.07
40574;BME280;26283;49.020;8.644;2023-05-01T00:54:45;99181.75;;;16.34;56.07
40574;BME280;26283;49.020;8.644;2023-05-01T00:57:20;99177.41;;;16.33;56.10
40574;BME280;26283;49.020;8.644;2023-05-01T00:59:46;99170.31;;;16.32;56.16
40574;BME280;26283;49.020;8.644;2023-05-01T01:02:12;99174.12;;;16.31;56.16
40574;BME280;26283;49.020;8.644;2023-05-01T01:04:43;99167.03;;;16.30;56.16
40574;BME280;26283;49.020;8.644;2023-05-01T01:08:02;99165.41;;;16.29;56.28
40574;BME280;26283;49.020;8.644;2023-05-01T01:13:11;99162.09;;;16.27;56.15
40574;BME280;26283;49.020;8.644;2023-05-01T01:18:38;99158.81;;;16.25;56.65
40574;BME280;26283;49.020;8.644;2023-05-01T01:21:11;99156.41;;;16.24;56.25
40574;BME280;26283;49.020;8.644;2023-05-01T01:35:28;99141.94;;;16.18;56.15
40574;BME280;26283;49.020;8.644;2023-05-01T01:41:06;99146.53;;;16.18;56.32
40574;BME280;26283;49.020;8.644;2023-05-01T01:43:37;99137.56;;;16.17;56.71
40574;BME280;26283;49.020;8.644;2023-05-01T01:46:05;99135.91;;;16.16;56.28
40574;BME280;26283;49.020;8.644;2023-05-01T01:48:35;99135.34;;;16.14;56.35
40574;BME280;26283;49.020;8.644;2023-05-01T01:51:05;99135.34;;;16.14;56.41
40574;BME280;26283;49.020;8.644;2023-05-01T01:53:34;99140.78;;;16.14;56.57
40574;BME280;26283;49.020;8.644;2023-05-01T01:56:02;99138.34;;;16.12;56.51
40574;BME280;26283;49.020;8.644;2023-05-01T01:58:29;99141.88;;;16.13;56.57
40574;BME280;26283;49.020;8.644;2023-05-01T02:00:56;99132.06;;;16.12;56.64
40574;BME280;26283;49.020;8.644;2023-05-01T02:03:25;99130.44;;;16.11;56.58
40574;BME280;26283;49.020;8.644;2023-05-01T02:05:53;99127.72;;;16.11;56.59
40574;BME280;26283;49.020;8.644;2023-05-01T02:08:19;99128.78;;;16.10;56.68
40574;BME280;26283;49.020;8.644;2023-05-01T02:10:46;99130.69;;;16.09;56.63
40574;BME280;26283;49.020;8.644;2023-05-01T02:13:13;99126.31;;;16.08;56.65
40574;BME280;26283;49.020;8.644;2023-05-01T02:15:39;99122.78;;;16.08;56.72
40574;BME280;26283;49.020;8.644;2023-05-01T02:18:05;99120.88;;;16.08;56.76
40574;BME280;26283;49.020;8.644;2023-05-01T02:20:32;99119.50;;;16.06;56.73
40574;BME280;26283;49.020;8.644;2023-05-01T02:22:58;99119.50;;;16.06;56.77
40574;BME280;26283;49.020;8.644;2023-05-01T02:25:24;99121.16;;;16.07;56.84
40574;BME280;26283;49.020;8.644;2023-05-01T02:28:08;99117.84;;;16.05;56.81
40574;BME280;26283;49.020;8.644;2023-05-01T02:30:34;99118.94;;;16.04;57.07
40574;BME280;26283;49.020;8.644;2023-05-01T02:33:00;99111.84;;;16.03;56.76
40574;BME280;26283;49.020;8.644;2023-05-01T02:35:25;99110.25;;;16.02;56.87
40574;BME280;26283;49.020;8.644;2023-05-01T02:37:51;99111.31;;;16.01;56.88
40574;BME280;26283;49.020;8.644;2023-05-01T02:40:17;99107.78;;;16.00;56.89
40574;BME280;26283;49.020;8.644;2023-05-01T02:42:43;99105.88;;;16.01;56.92
40574;BME280;26283;49.020;8.644;2023-05-01T02:45:10;99100.72;;;15.99;57.00
40574;BME280;26283;49.020;8.644;2023-05-01T02:47:43;99099.31;;;15.97;57.08
40574;BME280;26283;49.020;8.644;2023-05-01T02:50:10;99096.59;;;15.97;57.13
40574;BME280;26283;49.020;8.644;2023-05-01T02:52:37;99096.59;;;15.97;57.12
40574;BME280;26283;49.020;8.644;2023-05-01T02:55:03;99095.78;;;15.96;57.14
40574;BME280;26283;49.020;8.644;2023-05-01T02:57:31;99090.59;;;15.95;57.21
40574;BME280;26283;49.020;8.644;2023-05-01T02:59:57;99091.69;;;15.94;57.29
40574;BME280;26283;49.020;8.644;2023-05-01T03:02:22;99088.41;;;15.92;57.27
40574;BME280;26283;49.020;8.644;2023-05-01T03:04:47;99083.78;;;15.92;57.22
40574;BME280;26283;49.020;8.644;2023-05-01T03:07:14;99085.69;;;15.92;57.22
40574;BME280;26283;49.020;8.644;2023-05-01T03:09:39;99079.41;;;15.91;57.27
40574;BME280;26283;49.020;8.644;2023-05-01T03:12:04;99076.97;;;15.90;57.28
40574;BME280;26283;49.020;8.644;2023-05-01T03:14:30;99080.75;;;15.89;57.25
40574;BME280;26283;49.020;8.644;2023-05-01T03:16:55;99078.28;;;15.87;57.31
40574;BME280;26283;49.020;8.644;2023-05-01T03:19:21;99076.41;;;15.88;57.33
40574;BME280;26283;49.020;8.644;2023-05-01T03:21:46;99071.22;;;15.86;57.32
40574;BME280;26283;49.020;8.644;2023-05-01T03:24:11;99074.75;;;15.87;57.36
40574;BME280;26283;49.020;8.644;2023-05-01T03:26:37;99073.13;;;15.86;57.34
40574;BME280;26283;49.020;8.644;2023-05-01T03:29:02;99074.19;;;15.85;57.35
40574;BME280;26283;49.020;8.644;2023-05-01T03:31:27;99073.63;;;15.83;57.36
40574;BME280;26283;49.020;8.644;2023-05-01T03:33:53;99074.44;;;15.83;57.36
40574;BME280;26283;49.020;8.644;2023-05-01T03:36:19;99072.81;;;15.82;57.36
40574;BME280;26283;49.020;8.644;2023-05-01T03:38:46;99071.16;;;15.81;57.41
40574;BME280;26283;49.020;8.644;2023-05-01T03:41:11;99067.62;;;15.81;57.45
40574;BME280;26283;49.020;8.644;2023-05-01T03:43:37;99073.88;;;15.81;57.44
40574;BME280;26283;49.020;8.644;2023-05-01T03:46:02;99074.16;;;15.80;57.43
40574;BME280;26283;49.020;8.644;2023-05-01T03:48:27;99067.09;;;15.79;57.46
40574;BME280;26283;49.020;8.644;2023-05-01T03:50:53;99068.97;;;15.78;57.46
40574;BME280;26283;49.020;8.644;2023-05-01T03:53:18;99064.06;;;15.75;57.43
40574;BME280;26283;49.020;8.644;2023-05-01T03:55:43;99067.59;;;15.75;57.45
40574;BME280;26283;49.020;8.644;2023-05-01T03:58:09;99059.72;;;15.74;57.53
40574;BME280;26283;49.020;8.644;2023-05-01T04:00:35;99057.81;;;15.74;57.55
40574;BME280;26283;49.020;8.644;2023-05-01T04:03:02;99059.97;;;15.72;57.58
40574;BME280;26283;49.020;8.644;2023-05-01T04:05:28;99057.25;;;15.72;57.55
40574;BME280;26283;49.020;8.644;2023-05-01T04:07:54;99052.88;;;15.71;57.65
40574;BME280;26283;49.020;8.644;2023-05-01T04:10:19;99058.31;;;15.71;57.70
40574;BME280;26283;49.020;8.644;2023-05-01T04:12:44;99056.94;;;15.69;57.67
40574;BME280;26283;49.020;8.644;2023-05-01T04:15:10;99055.03;;;15.69;57.65
40574;BME280;26283;49.020;8.644;2023-05-01T04:17:36;99056.94;;;15.69;57.70
40574;BME280;26283;49.020;8.644;2023-05-01T04:20:02;99054.47;;;15.67;57.76
40574;BME280;26283;49.020;8.644;2023-05-01T04:22:29;99059.09;;;15.67;57.81
40574;BME280;26283;49.020;8.644;2023-05-01T04:24:55;99065.59;;;15.66;57.85
40574;BME280;26283;49.020;8.644;2023-05-01T04:27:21;99061.22;;;15.65;57.91
40574;BME280;26283;49.020;8.644;2023-05-01T04:29:46;99058.50;;;15.65;57.85
40574;BME280;26283;49.020;8.644;2023-05-01T04:32:12;99049.53;;;15.64;57.92
40574;BME280;26283;49.020;8.644;2023-05-01T04:34:37;99051.44;;;15.64;57.86
40574;BME280;26283;49.020;8.644;2023-05-01T04:37:03;99053.34;;;15.63;57.89
40574;BME280;26283;49.020;8.644;2023-05-01T04:39:31;99054.41;;;15.62;57.89
40574;BME280;26283;49.020;8.644;2023-05-01T04:41:56;99058.19;;;15.61;57.94
40574;BME280;26283;49.020;8.644;2023-05-01T04:44:22;99055.47;;;15.61;57.98
40574;BME280;26283;49.020;8.644;2023-05-01T04:46:47;99052.19;;;15.59;58.03
40574;BME280;26283;49.020;8.644;2023-05-01T04:49:12;99049.47;;;15.59;58.08
40574;BME280;26283;49.020;8.644;2023-05-01T04:51:38;99050.31;;;15.60;58.08
40574;BME280;26283;49.020;8.644;2023-05-01T04:54:04;99050.59;;;15.58;58.08
40574;BME280;26283;49.020;8.644;2023-05-01T04:56:29;99049.78;;;15.58;58.10
40574;BME280;26283;49.020;8.644;2023-05-01T04:58:55;99055.47;;;15.56;58.11
40574;BME280;26283;49.020;8.644;2023-05-01T05:01:20;99052.97;;;15.55;58.12
40574;BME280;26283;49.020;8.644;2023-05-01T05:03:46;99049.19;;;15.56;58.13
40574;BME280;26283;49.020;8.644;2023-05-01T05:06:11;99052.97;;;15.55;58.17
40574;BME280;26283;49.020;8.644;2023-05-01T05:08:36;99053.22;;;15.53;58.18
40574;BME280;26283;49.020;8.644;2023-05-01T05:11:02;99051.56;;;15.52;58.19
40574;BME280;26283;49.020;8.644;2023-05-01T05:13:27;99052.66;;;15.51;58.24
40574;BME280;26283;49.020;8.644;2023-05-01T05:15:53;99058.09;;;15.51;58.21
40574;BME280;26283;49.020;8.644;2023-05-01T05:18:18;99059.16;;;15.50;58.19
40574;BME280;26283;49.020;8.644;2023-05-01T05:20:44;99069.19;;;15.50;58.19
40574;BME280;26283;49.020;8.644;2023-05-01T05:23:10;99068.38;;;15.49;58.23
40574;BME280;26283;49.020;8.644;2023-05-01T05:25:36;99073.00;;;15.49;58.23
40574;BME280;26283;49.020;8.644;2023-05-01T05:28:02;99072.16;;;15.48;58.17
40574;BME280;26283;49.020;8.644;2023-05-01T05:30:27;99067.81;;;15.47;58.22
40574;BME280;26283;49.020;8.644;2023-05-01T05:32:53;99068.88;;;15.46;58.31
40574;BME280;26283;49.020;8.644;2023-05-01T05:35:19;99071.59;;;15.46;58.36
40574;BME280;26283;49.020;8.644;2023-05-01T05:37:44;99072.66;;;15.45;58.44
40574;BME280;26283;49.020;8.644;2023-05-01T05:40:10;99069.13;;;15.44;58.46
40574;BME280;26283;49.020;8.644;2023-05-01T05:42:35;99061.00;;;15.44;58.51
40574;BME280;26283;49.020;8.644;2023-05-01T05:45:01;99064.78;;;15.43;58.47
40574;BME280;26283;49.020;8.644;2023-05-01T05:47:26;99067.50;;;15.43;58.44
40574;BME280;26283;49.020;8.644;2023-05-01T05:49:52;99066.66;;;15.43;58.37
40574;BME280;26283;49.020;8.644;2023-05-01T05:52:19;99058.78;;;15.41;58.35
40574;BME280;26283;49.020;8.644;2023-05-01T05:54:45;99060.66;;;15.41;58.38
40574;BME280;26283;49.020;8.644;2023-05-01T05:57:13;99060.66;;;15.41;58.39
40574;BME280;26283;49.020;8.644;2023-05-01T05:59:38;99060.94;;;15.39;58.32
40574;BME280;26283;49.020;8.644;2023-05-01T06:02:04;99059.03;;;15.40;58.33
40574;BME280;26283;49.020;8.644;2023-05-01T06:04:29;99065.53;;;15.39;58.40
40574;BME280;26283;49.020;8.644;2023-05-01T06:06:54;99062.00;;;15.38;58.42
40574;BME280;26283;49.020;8.644;2023-05-01T06:09:21;99061.19;;;15.38;58.41
40574;BME280;26283;49.020;8.644;2023-05-01T06:11:46;99067.72;;;15.37;58.47
40574;BME280;26283;49.020;8.644;2023-05-01T06:14:13;99065.00;;;15.37;58.34
40574;BME280;26283;49.020;8.644;2023-05-01T06:16:38;99060.62;;;15.36;58.41
40574;BME280;26283;49.020;8.644;2023-05-01T06:19:04;99064.44;;;15.35;58.39
40574;BME280;26283;49.020;8.644;2023-05-01T06:21:30;99066.91;;;15.36;58.38
40574;BME280;26283;49.020;8.644;2023-05-01T06:23:56;99067.97;;;15.35;58.34
40574;BME280;26283;49.020;8.644;2023-05-01T06:26:22;99068.22;;;15.34;58.46
40574;BME280;26283;49.020;8.644;2023-05-01T06:28:47;99070.09;;;15.33;58.56
40574;BME280;26283;49.020;8.644;2023-05-01T06:31:13;99073.66;;;15.34;58.65
40574;BME280;26283;49.020;8.644;2023-05-01T06:33:38;99066.56;;;15.33;58.64
40574;BME280;26283;49.020;8.644;2023-05-01T06:36:04;99098.09;;;15.34;58.94
40574;BME280;26283;49.020;8.644;2023-05-01T06:38:29;99085.38;;;15.39;58.58
40574;BME280;26283;49.020;8.644;2023-05-01T06:40:57;99087.81;;;15.41;58.24
40574;BME280;26283;49.020;8.644;2023-05-01T06:43:22;99094.91;;;15.42;58.12
40574;BME280;26283;49.020;8.644;2023-05-01T06:45:52;99085.94;;;15.41;58.06
40574;BME280;26283;49.020;8.644;2023-05-01T06:48:17;99093.81;;;15.43;58.04
40574;BME280;26283;49.020;8.644;2023-05-01T06:50:42;99103.03;;;15.42;58.02
40574;BME280;26283;49.020;8.644;2023-05-01T06:53:08;99094.91;;;15.42;58.01
40574;BME280;26283;49.020;8.644;2023-05-01T06:55:33;99104.94;;;15.41;58.01
40574;BME280;26283;49.020;8.644;2023-05-01T06:57:59;99098.69;;;15.41;58.02
40574;BME280;26283;49.020;8.644;2023-05-01T07:00:24;99099.75;;;15.40;58.04
40574;BME280;26283;49.020;8.644;2023-05-01T07:02:49;99105.19;;;15.40;58.04
40574;BME280;26283;49.020;8.644;2023-05-01T07:05:15;99104.38;;;15.39;58.05
40574;BME280;26283;49.020;8.644;2023-05-01T07:07:40;99102.47;;;15.40;58.06
40574;BME280;26283;49.020;8.644;2023-05-01T07:10:06;99100.84;;;15.39;58.07
40574;BME280;26283;49.020;8.644;2023-05-01T07:12:31;99096.22;;;15.39;58.09
40574;BME280;26283;49.020;8.644;2023-05-01T07:14:57;99088.31;;;15.38;58.11
40574;BME280;26283;49.020;8.644;2023-05-01T07:17:22;99089.97;;;15.39;58.11
40574;BME280;26283;49.020;8.644;2023-05-01T07:19:47;99090.50;;;15.36;58.12
40574;BME280;26283;49.020;8.644;2023-05-01T07:22:14;99089.44;;;15.37;58.13
40574;BME280;26283;49.020;8.644;2023-05-01T07:24:39;99090.50;;;15.36;58.13
40574;BME280;26283;49.020;8.644;2023-05-01T07:27:05;99090.22;;;15.37;58.15
40574;BME280;26283;49.020;8.644;2023-05-01T07:29:30;99091.31;;;15.36;58.15
40574;BME280;26283;49.020;8.644;2023-05-01T07:31:55;99088.63;;;15.36;58.15
40574;BME280;26283;49.020;8.644;2023-05-01T07:34:21;99095.94;;;15.36;58.16
40574;BME280;26283;49.020;8.644;2023-05-01T07:36:46;99089.69;;;15.35;58.17
40574;BME280;26283;49.020;8.644;2023-05-01T07:39:11;99091.31;;;15.36;58.17
40574;BME280;26283;49.020;8.644;2023-05-01T07:41:38;99095.94;;;15.36;58.18
40574;BME280;26283;49.020;8.644;2023-05-01T07:44:04;99085.91;;;15.36;58.19
40574;BME280;26283;49.020;8.644;2023-05-01T07:46:29;99084.25;;;15.35;58.19
40574;BME280;26283;49.020;8.644;2023-05-01T07:48:55;99083.44;;;15.35;58.19
40574;BME280;26283;49.020;8.644;2023-05-01T07:51:20;99083.44;;;15.35;58.20
40574;BME280;26283;49.020;8.644;2023-05-01T07:53:46;99089.13;;;15.33;58.20
40574;BME280;26283;49.020;8.644;2023-05-01T07:56:12;99090.75;;;15.34;58.20
40574;BME280;26283;49.020;8.644;2023-05-01T07:58:37;99089.94;;;15.34;58.21
40574;BME280;26283;49.020;8.644;2023-05-01T08:01:05;99091.59;;;15.35;58.22
40574;BME280;26283;49.020;8.644;2023-05-01T08:03:30;99088.88;;;15.35;58.22
40574;BME280;26283;49.020;8.644;2023-05-01T08:05:57;99088.88;;;15.35;58.22
40574;BME280;26283;49.020;8.644;2023-05-01T08:08:23;99093.47;;;15.34;58.23
40574;BME280;26283;49.020;8.644;2023-05-01T08:10:49;99092.66;;;15.34;58.23
40574;BME280;26283;49.020;8.644;2023-05-01T08:13:15;99091.59;;;15.35;58.23
40574;BME280;26283;49.020;8.644;2023-05-01T08:15:41;99098.09;;;15.34;58.24
40574;BME280;26283;49.020;8.644;2023-05-01T08:18:09;99098.09;;;15.34;58.24
40574;BME280;26283;49.020;8.644;2023-05-01T08:20:35;99101.63;;;15.34;58.25
40574;BME280;26283;49.020;8.644;2023-05-01T08:23:01;99098.91;;;15.34;58.25
40574;BME280;26283;49.020;8.644;2023-05-01T08:25:26;99100.53;;;15.35;58.25
40574;BME280;26283;49.020;8.644;2023-05-01T08:27:52;99096.19;;;15.34;58.25
40574;BME280;26283;49.020;8.644;2023-05-01T08:30:17;99095.38;;;15.34;58.25
40574;BME280;26283;49.020;8.644;2023-05-01T08:32:42;99098.09;;;15.34;58.25
40574;BME280;26283;49.020;8.644;2023-05-01T08:35:08;99101.63;;;15.34;58.26
40574;BME280;26283;49.020;8.644;2023-05-01T08:37:33;99103.50;;;15.34;58.26
40574;BME280;26283;49.020;8.644;2023-05-01T08:39:59;99098.91;;;15.34;58.25
40574;BME280;26283;49.020;8.644;2023-05-01T08:42:24;99099.97;;;15.33;58.25
40574;BME280;26283;49.020;8.644;2023-05-01T08:44:52;99099.72;;;15.35;58.25
40574;BME280;26283;49.020;8.644;2023-05-01T08:47:18;99094.28;;;15.35;58.25
40574;BME280;26283;49.020;8.644;2023-05-01T08:49:44;99095.38;;;15.34;58.24
40574;BME280;26283;49.020;8.644;2023-05-01T08:52:11;99099.72;;;15.35;58.24
40574;BME280;26283;49.020;8.644;2023-05-01T08:54:40;99100.53;;;15.35;58.23
40574;BME280;26283;49.020;8.644;2023-05-01T08:57:08;99096.75;;;15.36;58.23
40574;BME280;26283;49.020;8.644;2023-05-01T08:59:34;99094.28;;;15.35;58.23
40574;BME280;26283;49.020;8.644;2023-05-01T09:02:02;99098.66;;;15.36;58.22
40574;BME280;26283;49.020;8.644;2023-05-01T09:04:38;99101.37;;;15.36;58.22
40574;BME280;26283;49.020;8.644;2023-05-01T09:07:04;99090.50;;;15.36;58.22
40574;BME280;26283;49.020;8.644;2023-05-01T09:09:30;99092.94;;;15.37;58.22
40574;BME280;26283;49.020;8.644;2023-05-01T09:12:00;99086.72;;;15.37;58.21
40574;BME280;26283;49.020;8.644;2023-05-01T09:14:30;99092.16;;;15.37;58.21
40574;BME280;26283;49.020;8.644;2023-05-01T09:16:56;99092.16;;;15.37;58.21
40574;BME280;26283;49.020;8.644;2023-05-01T09:19:21;99086.72;;;15.37;58.20
40574;BME280;26283;49.020;8.644;2023-05-01T09:21:47;99085.06;;;15.36;58.20
40574;BME280;26283;49.020;8.644;2023-05-01T09:24:12;99088.31;;;15.38;58.21
40574;BME280;26283;49.020;8.644;2023-05-01T09:26:41;99088.31;;;15.38;58.21
40574;BME280;26283;49.020;8.644;2023-05-01T09:29:07;99086.44;;;15.38;58.20
40574;BME280;26283;49.020;8.644;2023-05-01T09:31:34;99102.47;;;15.40;58.21
40574;BME280;26283;49.020;8.644;2023-05-01T09:34:02;99097.31;;;15.38;58.21
40574;BME280;26283;49.020;8.644;2023-05-01T09:36:30;99101.66;;;15.39;58.21
40574;BME280;26283;49.020;8.644;2023-05-01T09:38:59;99094.34;;;15.40;58.19
40574;BME280;26283;49.020;8.644;2023-05-01T09:41:25;99089.16;;;15.38;58.22
40574;BME280;26283;49.020;8.644;2023-05-01T09:43:52;99104.13;;;15.41;58.21
40574;BME280;26283;49.020;8.644;2023-05-01T09:46:19;99108.72;;;15.40;58.21
40574;BME280;26283;49.020;8.644;2023-05-01T09:48:57;99098.69;;;15.41;58.21
40574;BME280;26283;49.020;8.644;2023-05-01T09:51:25;99096.78;;;15.41;58.23
40574;BME280;26283;49.020;8.644;2023-05-01T09:53:52;99097.62;;;15.42;58.21
40574;BME280;26283;49.020;8.644;2023-05-01T09:56:19;99087.81;;;15.41;58.21
40574;BME280;26283;49.020;8.644;2023-05-01T09:58:46;99089.47;;;15.42;58.22
40574;BME280;26283;49.020;8.644;2023-05-01T10:01:12;99093.81;;;15.43;58.24
40574;BME280;26283;49.020;8.644;2023-05-01T10:03:39;99091.09;;;15.43;58.18
40574;BME280;26283;49.020;8.644;2023-05-01T10:06:05;99091.94;;;15.43;58.19
40574;BME280;26283;49.020;8.644;2023-05-01T10:08:47;99093.56;;;15.44;58.18
40574;BME280;26283;49.020;8.644;2023-05-01T10:11:12;99094.41;;;15.45;58.17
40574;BME280;26283;49.020;8.644;2023-05-01T10:13:38;99099.81;;;15.45;58.14
40574;BME280;26283;49.020;8.644;2023-05-01T10:16:04;99098.75;;;15.46;58.15
40574;BME280;26283;49.020;8.644;2023-05-01T10:18:35;99096.03;;;15.46;58.16
40574;BME280;26283;49.020;8.644;2023-05-01T10:21:02;99092.25;;;15.47;58.15
40574;BME280;26283;49.020;8.644;2023-05-01T10:23:28;99095.78;;;15.48;58.15
40574;BME280;26283;49.020;8.644;2023-05-01T10:25:54;99091.19;;;15.48;58.15
40574;BME280;26283;49.020;8.644;2023-05-01T10:28:20;99090.09;;;15.49;58.13
40574;BME280;26283;49.020;8.644;2023-05-01T10:30:47;99089.03;;;15.50;58.11
40574;BME280;26283;49.020;8.644;2023-05-01T10:33:13;99089.03;;;15.50;58.13
40574;BME280;26283;49.020;8.644;2023-05-01T10:35:39;99097.19;;;15.50;58.14
40574;BME280;26283;49.020;8.644;2023-05-01T10:38:13;99092.31;;;15.52;58.12
40574;BME280;26283;49.020;8.644;2023-05-01T10:40:42;99097.75;;;15.52;58.14
40574;BME280;26283;49.020;8.644;2023-05-01T10:45:46;99099.13;;;15.55;58.14
40574;BME280;26283;49.020;8.644;2023-05-01T10:48:12;99098.31;;;15.54;58.12
40574;BME280;26283;49.020;8.644;2023-05-01T10:51:06;99099.97;;;15.55;58.08
40574;BME280;26283;49.020;8.644;2023-05-01T10:53:32;99104.34;;;15.56;58.11
40574;BME280;26283;49.020;8.644;2023-05-01T10:55:57;99102.44;;;15.57;58.08
40574;BME280;26283;49.020;8.644;2023-05-01T10:58:54;99108.69;;;15.57;58.10
40574;BME280;26283;49.020;8.644;2023-05-01T11:01:41;99099.47;;;15.58;58.11
40574;BME280;26283;49.020;8.644;2023-05-01T11:12:11;99088.06;;;15.61;58.07
40574;BME280;26283;49.020;8.644;2023-05-01T11:20:10;99085.94;;;15.63;58.06
40574;BME280;26283;49.020;8.644;2023-05-01T11:22:37;99078.59;;;15.64;58.06
40574;BME280;26283;49.020;8.644;2023-05-01T11:25:17;99085.69;;;15.65;58.08
40574;BME280;26283;49.020;8.644;2023-05-01T11:27:49;99080.00;;;15.66;58.08
40574;BME280;26283;49.020;8.644;2023-05-01T11:30:16;99069.94;;;15.67;58.05
40574;BME280;26283;49.020;8.644;2023-05-01T11:32:43;99075.38;;;15.67;58.04
40574;BME280;26283;49.020;8.644;2023-05-01T11:35:24;99072.41;;;15.68;58.04
40574;BME280;26283;49.020;8.644;2023-05-01T11:37:52;99072.16;;;15.70;58.01
40574;BME280;26283;49.020;8.644;2023-05-01T11:40:25;99073.78;;;15.71;58.02
40574;BME280;26283;49.020;8.644;2023-05-01T11:43:00;99075.44;;;15.72;58.00
40574;BME280;26283;49.020;8.644;2023-05-01T11:45:25;99070.81;;;15.72;57.97
40574;BME280;26283;49.020;8.644;2023-05-01T11:47:52;99073.28;;;15.74;57.98
40574;BME280;26283;49.020;8.644;2023-05-01T11:50:17;99067.84;;;15.74;57.97
40574;BME280;26283;49.020;8.644;2023-05-01T11:52:50;99065.13;;;15.74;57.95
40574;BME280;26283;49.020;8.644;2023-05-01T11:55:19;99065.69;;;15.76;57.96
40574;BME280;26283;49.020;8.644;2023-05-01T11:57:50;99067.09;;;15.79;57.94
40574;BME280;26283;49.020;8.644;2023-05-01T12:00:35;99063.28;;;15.80;57.93
40574;BME280;26283;49.020;8.644;2023-05-01T12:03:04;99052.44;;;15.80;57.94
40574;BME280;26283;49.020;8.644;2023-05-01T12:05:37;99061.41;;;15.80;57.88
40574;BME280;26283;49.020;8.644;2023-05-01T12:10:34;99057.31;;;15.83;57.86
40574;BME280;26283;49.020;8.644;2023-05-01T12:13:02;99051.88;;;15.83;57.85
40574;BME280;26283;49.020;8.644;2023-05-01T12:15:35;99053.53;;;15.84;57.87
40574;BME280;26283;49.020;8.644;2023-05-01T12:18:03;99063.06;;;15.86;57.90
40574;BME280;26283;49.020;8.644;2023-05-01T12:20:47;99051.38;;;15.86;57.88
40574;BME280;26283;49.020;8.644;2023-05-01T12:23:14;99051.94;;;15.88;57.88
40574;BME280;26283;49.020;8.644;2023-05-01T12:25:41;99054.41;;;15.89;57.90
40574;BME280;26283;49.020;8.644;2023-05-01T12:28:12;99050.59;;;15.90;57.94
40574;BME280;26283;49.020;8.644;2023-05-01T12:30:39;99049.53;;;15.91;57.82
40574;BME280;26283;49.020;8.644;2023-05-01T12:33:22;99052.81;;;15.93;57.83
40574;BME280;26283;49.020;8.644;2023-05-01T12:35:51;99046.56;;;15.93;57.83
40574;BME280;26283;49.020;8.644;2023-05-01T12:38:21;99044.41;;;15.95;57.80
40574;BME280;26283;49.020;8.644;2023-05-01T12:40:56;99040.59;;;15.96;57.80
40574;BME280;26283;49.020;8.644;2023-05-01T12:43:30;99044.16;;;15.96;57.79
40574;BME280;26283;49.020;8.644;2023-05-01T12:45:56;99052.03;;;15.98;57.76
40574;BME280;26283;49.020;8.644;2023-05-01T12:48:23;99049.06;;;15.99;57.74
40574;BME280;26283;49.020;8.644;2023-05-01T12:50:49;99049.06;;;15.99;57.71
40574;BME280;26283;49.020;8.644;2023-05-01T12:53:22;99044.19;;;16.01;57.69
40574;BME280;26283;49.020;8.644;2023-05-01T12:55:51;99048.53;;;16.02;57.68
40574;BME280;26283;49.020;8.644;2023-05-01T12:58:17;99050.97;;;16.04;57.65
40574;BME280;26283;49.020;8.644;2023-05-01T13:03:14;99043.66;;;16.04;57.60
40574;BME280;26283;49.020;8.644;2023-05-01T13:05:49;99041.75;;;16.05;57.58
40574;BME280;26283;49.020;8.644;2023-05-01T13:08:23;99042.31;;;16.07;57.56
40574;BME280;26283;49.020;8.644;2023-05-01T13:10:49;99043.97;;;16.08;57.52
40574;BME280;26283;49.020;8.644;2023-05-01T13:13:28;99046.41;;;16.09;57.51
40574;BME280;26283;49.020;8.644;2023-05-01T13:16:10;99038.25;;;16.09;57.48
40574;BME280;26283;49.020;8.644;2023-05-01T13:18:51;99038.00;;;16.11;57.44
40574;BME280;26283;49.020;8.644;2023-05-01T13:21:21;99042.38;;;16.12;57.39
40574;BME280;26283;49.020;8.644;2023-05-01T13:23:59;99041.53;;;16.11;57.33
40574;BME280;26283;49.020;8.644;2023-05-01T13:26:26;99034.78;;;16.14;57.29
40574;BME280;26283;49.020;8.644;2023-05-01T13:28:53;99035.59;;;16.15;57.25
40574;BME280;26283;49.020;8.644;2023-05-01T13:31:18;99027.19;;;16.16;57.22
40574;BME280;26283;49.020;8.644;2023-05-01T13:33:43;99028.81;;;16.17;57.18
40574;BME280;26283;49.020;8.644;2023-05-01T13:36:13;99031.28;;;16.19;57.14
40574;BME280;26283;49.020;8.644;2023-05-01T13:38:44;99028.56;;;16.19;57.11
40574;BME280;26283;49.020;8.644;2023-05-01T13:41:21;99034.56;;;16.21;57.08
40574;BME280;26283;49.020;8.644;2023-05-01T13:43:48;99032.41;;;16.23;57.04